• Join FlightAware (Why Join?)
  • Login
  • US Flag 
07:55AM EDT


 

Airport Tracker/Info


-or-


 

Live Flight TrackerFlight Track Log ✈ SWA286 ✈ 29-Apr-2013 ✈ KBNA - KDEN

Flight Track Log - Related Links

Times and Time Zones

All times are in EDT time to prevent confusion due to time zone crossing. See the SWA286 flight status page for this flight to view local times or setup timezone preferences in your user account.

Time Position Orientation Groundspeed Altitude Reporting Facility
EDT Latitude Longitude Course Direction KTS MPH feet Rate Location/Type
04:37PM 36.1500 -86.6667 360° North 179 206 1,300  Level Nashville TRACON
04:38PM 36.1833 -86.6667 360° North 200 230 2,400 2,160 Climbing Nashville TRACON
04:39PM 36.2333 -86.7000 332° Northwest 266 306 4,800 2,760 Climbing Nashville TRACON
04:40PM 36.2333 -86.7833 270° West 278 320 8,000 3,000 Climbing Nashville TRACON
04:41PM 36.2367 -86.8731 273° West 312 359 10,600 2,340 Climbing Memphis Center
04:42PM 36.2486 -86.9986 277° West 332 382 12,500 2,520 Climbing Memphis Center
04:43PM 36.2600 -87.1192 277° West 348 400 15,700 2,880 Climbing Memphis Center
04:44PM 36.2736 -87.2419 278° West 365 420 18,300 2,580 Climbing Memphis Center
04:45PM 36.2956 -87.3700 282° West 377 434 20,900 2,520 Climbing Memphis Center
04:46PM 36.3197 -87.5056 283° West 394 453 23,400 2,280 Climbing Memphis Center
04:47PM 36.3725 -87.6275 298° West 394 453 25,500 1,800 Climbing Memphis Center
04:48PM 36.4228 -87.7392 299° West 407 468 27,000 1,620 Climbing Memphis Center
04:49PM 36.4797 -87.8689 299° West 420 483 28,800 1,800 Climbing Memphis Center
04:50PM 36.5386 -88.0014 299° West 431 496 30,600 1,740 Climbing Memphis Center
04:51PM 36.5992 -88.1317 300° West 431 496 32,300 1,560 Climbing Memphis Center
04:52PM 36.6517 -88.2647 296° West 436 502 33,800 1,500 Climbing Memphis Center
04:53PM 36.6769 -88.4139 282° West 436 502 35,400 1,500 Climbing Memphis Center
04:54PM 36.6981 -88.5611 280° West 436 502 36,800 1,200 Climbing Memphis Center
04:55PM 36.7228 -88.7028 282° West 431 496 37,900 600 Climbing Memphis Center
04:56PM 36.7456 -88.8500 281° West 431 496 38,000  Climbing Memphis Center
04:57PM 36.7681 -88.9944 281° West 431 496 38,000  Level Memphis Center
04:58PM 36.7906 -89.1419 281° West 431 496 38,000  Level Memphis Center
04:59PM 36.8125 -89.2839 281° West 431 496 38,000  Level Memphis Center
05:00PM 36.8325 -89.4289 280° West 431 496 38,000  Level Memphis Center
05:01PM 36.8544 -89.5739 281° West 431 496 38,000  Level Memphis Center
05:02PM 36.8739 -89.7164 280° West 431 496 38,000  Level Memphis Center
05:03PM 36.8975 -89.8589 282° West 425 489 38,000  Level Memphis Center
05:04PM 36.9147 -89.9989 279° West 425 489 38,000  Level Memphis Center
05:05PM 36.9358 -90.1414 281° West 425 489 38,000  Level Memphis Center
05:06PM 36.9569 -90.2842 281° West 425 489 38,000  Level Memphis Center
05:07PM 36.9886 -90.5014 280° West 415 478 38,000  Level Kansas City Center
05:08PM 37.0086 -90.6447 280° West 418 481 38,000  Level Kansas City Center
05:09PM 37.0283 -90.7875 280° West 417 480 38,000  Level Kansas City Center
05:10PM 37.0481 -90.9306 280° West 418 481 38,000  Level Kansas City Center
05:12PM 37.0711 -91.1044 279° West 421 484 38,000  Level Kansas City Center
05:13PM 37.0967 -91.2353 284° West 421 484 38,000  Level Kansas City Center
05:14PM 37.1342 -91.3739 289° West 419 482 38,000  Level Kansas City Center
05:15PM 37.1683 -91.5133 287° West 419 482 38,000  Level Kansas City Center
05:16PM 37.2108 -91.6786 288° West 415 478 38,000  Level Kansas City Center
05:17PM 37.2456 -91.8178 287° West 415 478 38,000  Level Kansas City Center
05:18PM 37.2806 -91.9575 288° West 417 480 38,000  Level Kansas City Center
05:19PM 37.3156 -92.0975 287° West 418 481 38,000  Level Kansas City Center
05:20PM 37.3511 -92.2400 287° West 422 486 38,000  Level Kansas City Center
05:21PM 37.3867 -92.3800 288° West 419 482 38,000  Level Kansas City Center
05:22PM 37.4197 -92.5200 287° West 415 478 38,000  Level Kansas City Center
05:23PM 37.4542 -92.6614 287° West 417 480 38,000  Level Kansas City Center
05:24PM 37.4969 -92.8311 288° West 421 484 38,000  Level Kansas City Center
05:25PM 37.5303 -92.9708 287° West 415 478 38,000  Level Kansas City Center
05:26PM 37.5636 -93.1094 287° West 413 475 38,000  Level Kansas City Center
05:27PM 37.5967 -93.2475 287° West 410 472 38,000  Level Kansas City Center
05:28PM 37.6297 -93.3867 287° West 412 474 38,000  Level Kansas City Center
05:29PM 37.6617 -93.5250 286° West 411 473 38,000  Level Kansas City Center
05:30PM 37.6936 -93.6636 286° West 410 472 38,000  Level Kansas City Center
05:31PM 37.7261 -93.8031 286° West 412 474 38,000  Level Kansas City Center
05:32PM 37.7653 -93.9711 286° West 415 478 38,000  Level Kansas City Center
05:33PM 37.7975 -94.1108 286° West 414 476 38,000  Level Kansas City Center
05:34PM 37.8300 -94.2506 286° West 414 476 38,000  Level Kansas City Center
05:35PM 37.8600 -94.3914 285° West 414 476 38,000  Level Kansas City Center
05:36PM 37.8942 -94.5397 286° West 414 476 38,000  Level Kansas City Center
05:37PM 37.9247 -94.6739 286° West 414 476 38,000  Level Kansas City Center
05:38PM 37.9586 -94.8292 286° West 411 473 38,000  Level Kansas City Center
05:39PM 37.9886 -94.9619 286° West 410 472 38,000  Level Kansas City Center
05:40PM 38.0222 -95.1183 285° West 410 472 38,000  Level Kansas City Center
05:42PM 38.0506 -95.2511 285° West 405 466 38,000  Level Kansas City Center
05:43PM 38.0875 -95.4053 287° West 408 470 38,000  Level Kansas City Center
05:44PM 38.1669 -95.5022 316° Northwest 416 479 38,000  Level Kansas City Center
05:45PM 38.2972 -95.5453 345° North 433 498 38,000  Level Kansas City Center
05:46PM 38.3819 -95.6336 321° Northwest 414 476 38,000  Level Kansas City Center
05:47PM 38.4122 -95.7661 286° West 406 467 38,000  Level Kansas City Center
05:48PM 38.4344 -95.9247 280° West 406 467 38,000  Level Kansas City Center
05:49PM 38.4531 -96.0614 280° West 409 471 38,000  Level Kansas City Center
05:50PM 38.4747 -96.2211 280° West 408 470 38,000  Level Kansas City Center
05:51PM 38.4942 -96.3589 280° West 412 474 38,000  Level Kansas City Center
05:52PM 38.5150 -96.5156 280° West 403 464 38,000  Level Kansas City Center
05:53PM 38.5328 -96.6506 280° West 402 463 38,000  Level Kansas City Center
05:54PM 38.5542 -96.8086 280° West 403 464 38,000  Level Kansas City Center
05:55PM 38.5700 -96.9386 279° West 407 468 38,000  Level Kansas City Center
05:56PM 38.5889 -97.0811 280° West 408 470 38,000  Level Kansas City Center
05:57PM 38.6067 -97.2250 279° West 412 474 38,000  Level Kansas City Center
05:58PM 38.6286 -97.3986 279° West 415 478 38,000  Level Kansas City Center
05:59PM 38.6467 -97.5447 279° West 418 481 38,000  Level Kansas City Center
06:00PM 38.6647 -97.6914 279° West 420 483 38,000  Level Kansas City Center
06:01PM 38.6831 -97.8367 279° West 418 481 38,000  Level Kansas City Center
06:02PM 38.6997 -97.9792 279° West 409 471 38,000  Level Kansas City Center
06:03PM 38.7208 -98.1531 279° West 414 476 38,000  Level Kansas City Center
06:04PM 38.7378 -98.3000 278° West 418 481 38,000  Level Kansas City Center
06:05PM 38.7561 -98.4442 279° West 414 476 38,000  Level Kansas City Center
06:06PM 38.7714 -98.5911 278° West 417 480 38,000  Level Kansas City Center
06:07PM 38.7892 -98.7378 279° West 418 481 38,000  Level Kansas City Center
06:08PM 38.8047 -98.8861 278° West 421 484 38,000  Level Kansas City Center
06:09PM 38.8253 -99.0611 279° West 416 479 38,000  Level Kansas City Center
06:10PM 38.8406 -99.2069 278° West 414 476 38,000  Level Kansas City Center
06:11PM 38.8497 -99.3536 275° West 414 476 38,000  Level Kansas City Center
06:13PM 38.8500 -99.4828 270° West 415 478 38,000  Level Denver Center
06:14PM 38.8514 -99.6733 271° West 420 483 38,000  Level Denver Center
06:15PM 38.8533 -99.8125 271° West 412 474 38,000  Level Denver Center
06:16PM 38.8531 -99.9736 270° West 408 470 38,000  Level Denver Center
06:17PM 38.8547 -100.1117 271° West 405 466 38,000  Level Denver Center
06:18PM 38.8556 -100.2714 270° West 403 464 38,000  Level Denver Center
06:19PM 38.8550 -100.4081 270° West 402 463 38,000  Level Denver Center
06:20PM 38.8550 -100.5247 270° West 407 468 38,000  Level Denver Center
06:21PM 38.8558 -100.7083 270° West 407 468 38,000  Level Denver Center
06:22PM 38.8547 -100.8489 269° West 409 471 38,000 -360 Level Denver Center
06:23PM 38.8544 -101.0133 270° West 413 475 37,300 -780 Descending Denver Center
06:24PM 38.8533 -101.1567 269° West 422 486 36,400 -660 Descending Denver Center
06:25PM 38.8533 -101.3222 270° West 418 481 36,000 -660 Descending Denver Center
06:26PM 38.8522 -101.4647 269° West 420 483 35,000 -1,020 Descending Denver Center
06:27PM 38.8511 -101.6564 270° West 421 484 33,800 -1,080 Descending Denver Center
06:28PM 38.8489 -101.8281 269° West 429 494 32,800 -900 Descending Denver Center
06:29PM 38.8472 -101.9775 269° West 438 504 32,000 -420 Descending Denver Center
06:30PM 38.8442 -102.1292 269° West 444 511 32,000  Level Denver Center
06:31PM 38.8425 -102.3025 269° West 438 504 32,000  Level Denver Center
06:32PM 38.8394 -102.4522 269° West 438 504 32,000  Level Denver Center
06:33PM 38.8678 -102.6172 282° West 427 491 32,000  Level Denver Center
06:34PM 38.9183 -102.7511 296° West 434 499 32,000  Level Denver Center
06:35PM 38.9753 -102.8864 298° West 431 496 32,000  Level Denver Center
06:36PM 39.0308 -103.0244 297° West 431 496 32,000 -1,080 Level Denver Center
06:37PM 39.0958 -103.1842 298° West 427 491 29,800 -2,340 Descending Denver Center
06:38PM 39.1494 -103.3169 298° West 415 478 27,300 -2,460 Descending Denver Center
06:40PM 39.2017 -103.4453 298° West 404 465 24,800 -2,340 Descending Denver Center
06:41PM 39.2514 -103.5719 297° West 395 455 22,500 -2,220 Descending Denver Center
06:42PM 39.2986 -103.6897 297° West 372 428 20,300 -2,340 Descending Denver Center
06:43PM 39.3444 -103.8075 297° West 366 421 17,800 -1,560 Descending Denver Center
06:44PM 39.3914 -103.9250 297° West 348 400 17,100 -1,020 Descending Denver Center
06:45PM 39.3992 -104.0397 275° West 326 375 15,800 -1,440 Descending Denver Center
06:46PM 39.4064 -104.1497 275° West 294 338 14,200 -1,320 Descending Denver Center
06:47PM 39.4103 -104.2525 273° West 287 330 13,100 -900 Descending Denver Center
06:48PM 39.4147 -104.3453 274° West 259 298 12,400 -900 Descending Denver Center
06:49PM 39.4203 -104.4378 274° West 242 278 11,300 -1,140 Descending Denver Center
06:50PM 39.4778 -104.4808 330° Northwest 249 287 10,100 -1,140 Descending Denver Center
06:51PM 39.5389 -104.5181 335° Northwest 243 280 9,000 -1,020 Descending Denver Center
06:52PM 39.6039 -104.5564 336° Northwest 240 276 8,000 -840 Descending Denver Center
06:53PM 39.6644 -104.5922 336° Northwest 242 278 7,300 -480 Descending Denver Center
06:54PM 39.7300 -104.6308 336° Northwest 243 280 7,000 -540 Descending Denver Center
06:55PM 39.7942 -104.6425 352° North 188 216 6,100 -720 Descending Denver Center
06:56PM 39.8394 -104.6419 North 163 188 5,400 -600 Descending Denver Center
06:58PM 39.8500 -104.6667 North  Level FlightAware Approximate
07:05PM 39.8617 -104.6732 North  Level Estimated
07:06PM 39.8617 -104.6732 North  Level Estimated
07:07PM 39.8617 -104.6732 North  Level Estimated
07:08PM 39.8617 -104.6732 North  Level Estimated
07:09PM 39.8617 -104.6732 North  Level Estimated
07:10PM 39.8617 -104.6732 North  Level Estimated
07:11PM 39.8617 -104.6732 North  Level Estimated
07:12PM 39.8617 -104.6732 North  Level Estimated
07:13PM 39.8617 -104.6732 North  Level Estimated
07:14PM 39.8617 -104.6732 North  Level Estimated
07:15PM 39.8617 -104.6732 North  Level Estimated